Time;durP1;ratioP1;P1;durP2;ratioP2;P2;SDS_P1;SDS_P2;PMS_P1;PMS_P2;Temp;Humidity;BMP_temperature;BMP_pressure;BME280_temperature;BME280_humidity;BME280_pressure;Samples;Min_cycle;Max_cycle;Signal;HPM_P1;HPM_P2
2024/02/09 00:00:07;;;;;;;;;5.00;3.00;;;;;-144.24;100.00;61653.13;5068953;28;45460;-72
2024/02/09 00:02:34;;;;;;;;;6.67;4.00;;;;;-144.24;100.00;61490.25;5068459;28;45682;-72
2024/02/09 00:05:00;;;;;;;;;4.00;4.00;;;;;-144.24;100.00;61647.09;5068713;28;46788;-73
2024/02/09 00:07:25;;;;;;;;;4.00;2.67;;;;;-144.24;100.00;61568.69;5071248;28;45463;-73
2024/02/09 00:09:51;;;;;;;;;3.00;3.00;;;;;-144.24;100.00;61556.63;5075042;28;58207;-72
2024/02/09 00:12:20;;;;;;;;;3.00;3.00;;;;;-144.24;100.00;61510.38;5073443;28;56042;-72
2024/02/09 00:14:47;;;;;;;;;6.00;2.00;;;;;-144.24;100.00;61431.94;5048204;28;45549;-71
2024/02/09 00:17:13;;;;;;;;;4.33;4.33;;;;;-144.24;100.00;61279.13;5075397;28;45462;-72
2024/02/09 00:19:38;;;;;;;;;8.33;3.00;;;;;-144.24;100.00;61188.66;5058344;28;45354;-73
2024/02/09 00:22:04;;;;;;;;;4.67;4.67;;;;;-144.24;100.00;61208.75;5074519;28;45482;-72
2024/02/09 00:24:31;;;;;;;;;3.00;3.00;;;;;-144.24;100.00;61037.84;5074187;28;58152;-73
2024/02/09 00:27:00;;;;;;;;;4.67;4.67;;;;;-144.24;100.00;61005.69;5072724;28;45542;-72
2024/02/09 00:29:25;;;;;;;;;4.33;4.00;;;;;-144.24;100.00;61055.94;5069762;28;45592;-72
2024/02/09 00:31:52;;;;;;;;;3.67;3.00;;;;;-144.24;100.00;60981.56;5075855;28;45592;-72
2024/02/09 00:34:18;;;;;;;;;4.33;3.33;;;;;-144.24;100.00;60993.63;5073063;28;45779;-73
2024/02/09 00:36:46;;;;;;;;;5.00;3.00;;;;;-144.24;100.00;60971.50;5058882;28;45439;-73
2024/02/09 00:39:13;;;;;;;;;5.00;5.00;;;;;-144.24;100.00;60862.94;5064730;28;45493;-72
2024/02/09 00:41:39;;;;;;;;;4.33;3.00;;;;;-144.24;100.00;60796.59;5052299;28;45530;-72
2024/02/09 00:44:04;;;;;;;;;4.00;4.00;;;;;-144.24;100.00;61106.22;5037516;28;48558;-72
2024/02/09 00:46:32;;;;;;;;;3.00;3.00;;;;;-144.24;100.00;61948.75;5074876;28;68091;-72
2024/02/09 00:49:02;;;;;;;;;4.33;3.00;;;;;-144.24;100.00;61832.09;5056058;28;45414;-72
2024/02/09 00:51:28;;;;;;;;;4.00;2.67;;;;;-144.24;100.00;61687.31;5070215;28;45616;-72
2024/02/09 00:53:53;;;;;;;;;3.00;3.00;;;;;-144.24;100.00;61803.94;5067799;28;45430;-72
2024/02/09 00:56:18;;;;;;;;;4.67;2.00;;;;;-144.24;100.00;61910.53;5057546;28;49471;-72
2024/02/09 00:58:44;;;;;;;;;5.00;2.33;;;;;-144.24;100.00;61747.63;5072752;28;65845;-72
2024/02/09 01:01:09;;;;;;;;;4.00;2.67;;;;;-144.24;100.00;61544.53;5073102;28;63133;-71
2024/02/09 01:03:36;;;;;;;;;5.00;3.67;;;;;-144.24;100.00;61385.69;5054919;28;46066;-72
2024/02/09 01:06:04;;;;;;;;;5.33;4.33;;;;;-144.24;100.00;61120.28;5058796;28;45426;-72
2024/02/09 01:08:29;;;;;;;;;8.33;4.00;;;;;-144.24;100.00;60818.72;5072037;28;45459;-73
2024/02/09 01:10:55;;;;;;;;;3.67;3.67;;;;;-144.24;100.00;60768.44;5073137;28;45383;-71
2024/02/09 02:46:14;;;;;;;;;1.67;1.67;;;;;-144.24;100.00;61433.94;5057186;28;45475;-72
2024/02/09 03:05:07;;;;;;;;;4.33;1.67;;;;;-144.24;100.00;62391.19;5075386;28;45447;-73
2024/02/09 03:07:33;;;;;;;;;2.00;2.00;;;;;-144.24;100.00;62723.06;5068957;28;45346;-72
2024/02/09 03:10:01;;;;;;;;;2.00;2.00;;;;;-144.24;100.00;62982.53;5076198;28;45445;-71
2024/02/09 03:12:28;;;;;;;;;3.00;1.00;;;;;-144.24;100.00;63107.25;5040746;28;47461;-72
2024/02/09 03:14:54;;;;;;;;;4.00;2.67;;;;;-144.24;100.00;63686.63;5077611;28;45372;-72
2024/02/09 03:17:19;;;;;;;;;3.67;2.00;;;;;-144.24;100.00;63575.97;5077993;28;45490;-71
2024/02/09 03:19:45;;;;;;;;;1.67;1.00;;;;;-144.24;100.00;64421.03;5078226;28;45298;-72
2024/02/09 03:22:10;;;;;;;;;3.00;1.67;;;;;-144.24;100.00;64334.50;5076141;28;52702;-72
2024/02/09 03:24:39;;;;;;;;;2.00;2.00;;;;;-144.24;100.00;64487.44;5078300;28;45334;-73
2024/02/09 03:27:05;;;;;;;;;1.00;1.00;;;;;-144.24;100.00;64533.72;5075665;28;45358;-72
2024/02/09 03:29:31;;;;;;;;;1.67;1.67;;;;;-144.24;100.00;64441.16;5077253;28;45219;-72
2024/02/09 03:31:56;;;;;;;;;1.67;1.67;;;;;-144.24;100.00;64539.75;5076384;28;67264;-71
2024/02/09 03:34:21;;;;;;;;;5.33;2.00;;;;;-144.24;100.00;64656.47;5059287;28;48996;-73
2024/02/09 03:36:47;;;;;;;;;2.33;1.33;;;;;-144.24;100.00;64664.53;5070033;28;64640;-73
2024/02/09 03:39:12;;;;;;;;;3.00;3.00;;;;;-144.24;100.00;64853.69;5076232;28;63885;-72
2024/02/09 03:41:37;;;;;;;;;7.33;2.00;;;;;-144.24;100.00;64865.78;5072571;28;74031;-73
2024/02/09 03:44:03;;;;;;;;;2.00;2.00;;;;;-144.24;100.00;65024.75;5076598;28;45469;-72
2024/02/09 03:46:32;;;;;;;;;4.33;2.67;;;;;-144.24;100.00;65286.41;5074271;28;45783;-72
2024/02/09 03:48:57;;;;;;;;;3.00;1.00;;;;;-144.24;100.00;65238.09;5075881;28;45679;-73
2024/02/09 03:51:25;;;;;;;;;2.67;1.67;;;;;-144.24;100.00;65407.16;5076148;28;47092;-73
2024/02/09 03:53:50;;;;;;;;;3.00;2.00;;;;;-144.24;100.00;65362.88;5071835;28;45428;-73
2024/02/09 03:56:16;;;;;;;;;2.00;2.00;;;;;-144.24;100.00;65751.34;5075009;28;45417;-71
2024/02/09 03:58:42;;;;;;;;;4.00;2.67;;;;;-144.24;100.00;66039.22;5076501;28;60390;-72
2024/02/09 04:01:10;;;;;;;;;4.67;2.00;;;;;-144.24;100.00;65771.50;5076604;28;46233;-73
2024/02/09 04:03:35;;;;;;;;;3.00;2.00;;;;;-144.24;100.00;65998.97;5067714;28;45287;-72
2024/02/09 04:06:02;;;;;;;;;3.33;2.00;;;;;-144.24;100.00;66029.16;5074218;28;45596;-72
2024/02/09 04:08:28;;;;;;;;;3.00;1.33;;;;;-144.24;100.00;66141.88;5074748;28;45462;-73
2024/02/09 04:10:53;;;;;;;;;1.00;1.00;;;;;-144.24;100.00;66206.31;5073212;28;46753;-72
2024/02/09 04:13:18;;;;;;;;;4.33;2.00;;;;;-144.24;100.00;66423.72;5052785;28;53409;-72
2024/02/09 04:15:44;;;;;;;;;3.33;1.00;;;;;-144.24;100.00;66717.69;5075150;28;62481;-72
2024/02/09 04:18:09;;;;;;;;;2.33;2.00;;;;;-144.24;100.00;66973.41;5039832;28;66818;-71
2024/02/09 04:20:35;;;;;;;;;2.00;2.00;;;;;-144.24;100.00;67301.63;5074060;28;45319;-72
2024/02/09 04:23:00;;;;;;;;;1.00;1.00;;;;;-144.24;100.00;67259.31;5077276;28;54163;-72
2024/02/09 04:25:26;;;;;;;;;2.00;2.00;;;;;-144.24;100.00;67323.75;5076269;28;45229;-71
2024/02/09 04:27:51;;;;;;;;;4.00;2.67;;;;;-144.24;100.00;67643.97;5070788;28;45389;-72
2024/02/09 04:30:18;;;;;;;;;1.67;1.67;;;;;-144.24;100.00;67458.69;5074965;28;45342;-73
2024/02/09 04:32:43;;;;;;;;;2.00;2.00;;;;;-144.24;100.00;67861.47;5073745;28;45528;-72
2024/02/09 04:35:10;;;;;;;;;2.33;2.33;;;;;-144.24;100.00;67893.69;5072608;28;45413;-73
2024/02/09 04:37:36;;;;;;;;;2.00;2.00;;;;;-144.24;100.00;67931.97;5076610;28;45460;-71
2024/02/09 04:40:03;;;;;;;;;2.00;2.00;;;;;-144.24;100.00;67954.13;5070978;28;45363;-72
2024/02/09 04:42:29;;;;;;;;;3.67;3.00;;;;;-144.24;100.00;68062.88;5069953;28;45510;-72
2024/02/09 04:44:54;;;;;;;;;4.67;1.33;;;;;-144.24;100.00;68175.66;5049012;28;66254;-72
2024/02/09 04:47:19;;;;;;;;;1.67;1.33;;;;;-144.24;100.00;68137.41;5068515;28;59327;-72
2024/02/09 04:49:48;;;;;;;;;2.00;2.00;;;;;-144.24;100.00;68197.81;5072257;28;54802;-71
2024/02/09 04:52:14;;;;;;;;;3.00;2.00;;;;;-144.24;100.00;68137.41;5057795;28;45571;-72
2024/02/09 04:54:39;;;;;;;;;3.33;3.00;;;;;-144.24;100.00;68469.75;5075224;28;65082;-72
2024/02/09 04:57:07;;;;;;;;;2.00;2.00;;;;;-144.24;100.00;68334.78;5075402;28;59630;-71
2024/02/09 04:59:33;;;;;;;;;3.33;2.33;;;;;-144.24;100.00;68582.53;5074567;28;46608;-72
2024/02/09 05:01:58;;;;;;;;;3.00;2.00;;;;;-144.24;100.00;68739.66;5071805;28;45495;-71
2024/02/09 05:04:23;;;;;;;;;3.33;1.00;;;;;-144.24;100.00;68727.56;5068615;28;45406;-72
2024/02/09 05:06:50;;;;;;;;;1.00;1.00;;;;;-144.24;100.00;68929.03;5075673;28;51591;-73
2024/02/09 05:09:29;;;;;;;;;1.00;1.00;;;;;-144.24;100.00;69124.44;5068420;28;45690;-73
2024/02/09 05:11:55;;;;;;;;;4.00;3.00;;;;;-144.24;100.00;69372.25;5059711;28;45371;-72
2024/02/09 05:14:21;;;;;;;;;2.00;1.00;;;;;-144.24;100.00;70113.75;5055088;28;45325;-72
2024/02/09 05:16:46;;;;;;;;;2.67;2.00;;;;;-144.24;100.00;70238.69;5050857;28;63954;-73
2024/02/09 05:19:11;;;;;;;;;3.67;2.00;;;;;-144.24;100.00;70536.94;5057426;28;63461;-72
2024/02/09 05:21:37;;;;;;;;;8.67;3.00;;;;;-144.24;100.00;70776.78;5076031;28;45366;-73
2024/02/09 05:24:03;;;;;;;;;3.33;2.00;;;;;-144.24;100.00;70583.31;5074381;28;60985;-72
2024/02/09 05:26:29;;;;;;;;;3.67;2.00;;;;;-144.24;100.00;70490.59;5076703;28;45358;-73
2024/02/09 05:28:55;;;;;;;;;2.00;2.00;;;;;-144.24;100.00;70905.78;5056134;28;46586;-71
2024/02/09 05:31:25;;;;;;;;;2.33;2.00;;;;;-144.24;100.00;70813.06;5076504;28;45311;-72
2024/02/09 05:33:51;;;;;;;;;4.33;2.00;;;;;-144.24;100.00;70895.69;5074603;28;45347;-73
2024/02/09 05:36:22;;;;;;;;;4.67;2.00;;;;;-144.24;100.00;70982.38;5056472;28;45547;-71
2024/02/09 05:38:50;;;;;;;;;4.67;1.00;;;;;-144.24;100.00;71048.88;5074559;28;46559;-72
2024/02/09 05:41:16;;;;;;;;;2.00;2.00;;;;;-144.24;100.00;71274.63;5073300;28;45496;-71
2024/02/09 05:43:47;;;;;;;;;3.00;1.00;;;;;-144.24;100.00;71218.19;5075992;28;45404;-71
2024/02/09 05:46:13;;;;;;;;;5.00;2.00;;;;;-144.24;100.00;71466.13;5057405;28;45272;-73
2024/02/09 05:48:38;;;;;;;;;2.00;2.00;;;;;-144.24;100.00;71601.19;5057160;28;45418;-72
2024/02/09 05:51:10;;;;;;;;;4.00;3.00;;;;;-144.24;100.00;71474.19;5075769;28;45407;-72
2024/02/09 05:53:35;;;;;;;;;1.00;1.00;;;;;-144.24;100.00;71708.03;5075795;28;45295;-72
2024/02/09 05:56:01;;;;;;;;;2.33;1.00;;;;;-144.24;100.00;71619.34;5071207;28;63030;-72
2024/02/09 05:58:27;;;;;;;;;4.00;2.33;;;;;-144.24;100.00;71758.44;5074216;28;45516;-71
2024/02/09 06:00:52;;;;;;;;;1.00;1.00;;;;;-144.24;100.00;71907.63;5073011;28;70102;-71
2024/02/09 06:03:17;;;;;;;;;3.33;2.33;;;;;-144.24;100.00;71927.78;5066183;28;61316;-71
2024/02/09 06:05:43;;;;;;;;;3.33;2.00;;;;;-144.24;100.00;71986.25;5052362;28;45676;-71
2024/02/09 06:08:08;;;;;;;;;2.33;1.33;;;;;-144.24;100.00;72018.50;5071714;28;46786;-71
2024/02/09 06:10:34;;;;;;;;;4.00;2.00;;;;;-144.24;100.00;72105.19;5064578;28;46835;-71
2024/02/09 06:12:59;;;;;;;;;3.00;2.00;;;;;-144.24;100.00;72337.06;5071427;28;45925;-72
2024/02/09 06:15:25;;;;;;;;;3.33;2.00;;;;;-144.24;100.00;72137.47;5073997;28;45675;-71
2024/02/09 06:17:50;;;;;;;;;1.00;1.00;;;;;-144.24;100.00;72280.59;5074180;28;69755;-70
2024/02/09 06:20:19;;;;;;;;;5.00;2.33;;;;;-144.24;100.00;72403.59;5074805;28;45461;-72
2024/02/09 06:22:44;;;;;;;;;2.00;2.00;;;;;-144.24;100.00;72476.19;5075127;28;45470;-71
2024/02/09 06:25:10;;;;;;;;;4.00;2.00;;;;;-144.24;100.00;72581.03;5066410;28;45453;-72
2024/02/09 06:27:35;;;;;;;;;5.33;2.00;;;;;-144.24;100.00;72585.06;5072400;28;71739;-73
2024/02/09 06:30:01;;;;;;;;;2.00;2.00;;;;;-144.24;100.00;72766.53;5053755;28;75089;-73
2024/02/09 06:32:26;;;;;;;;;6.67;2.00;;;;;-144.24;100.00;72837.13;5073848;28;45525;-71
2024/02/09 06:34:52;;;;;;;;;2.67;1.00;;;;;-144.24;100.00;72966.19;5075329;28;45611;-72
2024/02/09 06:37:18;;;;;;;;;1.00;1.00;;;;;-144.24;100.00;72863.34;5181792;22;45956;-72
2024/02/09 06:39:45;;;;;;;;;1.00;1.00;;;;;-144.24;100.00;72970.22;5044335;28;45515;-71
2024/02/09 06:42:11;;;;;;;;;4.00;3.00;;;;;-144.24;100.00;72972.22;5029878;28;45475;-71
2024/02/09 06:44:43;;;;;;;;;5.00;2.00;;;;;-144.24;100.00;73155.75;5047945;28;45443;-72
2024/02/09 06:47:12;;;;;;;;;2.00;2.00;;;;;-144.24;100.00;73268.69;5050313;28;46858;-72
2024/02/09 06:49:39;;;;;;;;;2.00;2.00;;;;;-144.24;100.00;73300.94;5052723;28;45344;-71
2024/02/09 06:52:05;;;;;;;;;3.00;1.33;;;;;-144.24;100.00;73359.44;5049147;28;45371;-71
2024/02/09 06:54:30;;;;;;;;;2.67;2.00;;;;;-144.24;100.00;73385.66;5033732;28;46350;-70
2024/02/09 06:56:56;;;;;;;;;2.00;2.00;;;;;-144.24;100.00;73393.72;5034780;28;76118;-71
2024/02/09 06:59:23;;;;;;;;;8.33;3.67;;;;;-144.24;100.00;73504.63;5046803;28;70043;-72
2024/02/09 07:01:48;;;;;;;;;2.00;2.00;;;;;-144.24;100.00;73607.50;5052344;28;45390;-72
2024/02/09 07:04:17;;;;;;;;;3.00;2.00;;;;;-144.24;100.00;73460.28;5053645;28;45245;-73
2024/02/09 07:06:47;;;;;;;;;3.33;2.00;;;;;-144.24;100.00;73504.63;5052464;28;45498;-70
2024/02/09 07:09:18;;;;;;;;;4.00;2.00;;;;;-144.24;100.00;73674.06;5052202;28;45491;-71
2024/02/09 07:11:47;;;;;;;;;2.67;2.00;;;;;-144.24;100.00;73621.63;5051723;28;45540;-72
2024/02/09 07:14:16;;;;;;;;;7.67;2.00;;;;;-144.24;100.00;73738.59;5052097;28;45464;-71
2024/02/09 07:16:41;;;;;;;;;2.00;2.00;;;;;-144.24;100.00;73736.59;5052221;28;46180;-71
2024/02/09 07:19:09;;;;;;;;;4.33;2.67;;;;;-144.24;100.00;73657.91;5050438;28;45501;-71
2024/02/09 07:21:37;;;;;;;;;2.33;2.33;;;;;-144.24;100.00;73708.34;5056555;28;45458;-72
2024/02/09 07:24:04;;;;;;;;;2.00;2.00;;;;;-144.24;100.00;73893.91;5054825;28;45277;-70
2024/02/09 07:26:30;;;;;;;;;5.00;2.00;;;;;-144.24;100.00;74079.47;5041443;28;45728;-70
2024/02/09 07:28:57;;;;;;;;;4.00;2.67;;;;;-144.24;100.00;74321.53;5048887;28;46302;-72
2024/02/09 07:31:23;;;;;;;;;3.67;2.33;;;;;-144.24;100.00;74515.22;5043530;28;45933;-71
2024/02/09 07:33:48;;;;;;;;;3.00;3.00;;;;;-144.24;100.00;74662.47;5051529;28;45370;-72
2024/02/09 07:36:14;;;;;;;;;3.00;2.33;;;;;-144.24;100.00;74930.81;5035990;28;46806;-72
2024/02/09 07:38:39;;;;;;;;;1.33;1.00;;;;;-144.24;100.00;75187.03;5033663;28;45462;-72
2024/02/09 07:41:05;;;;;;;;;2.00;2.00;;;;;-144.24;100.00;75221.34;5051704;28;45699;-72
2024/02/09 07:43:31;;;;;;;;;2.00;2.00;;;;;-144.24;100.00;75249.59;5050794;28;50503;-72
2024/02/09 07:45:56;;;;;;;;;5.00;3.00;;;;;-144.24;100.00;75255.66;5046631;28;46487;-70
2024/02/09 07:48:21;;;;;;;;;2.00;2.00;;;;;-144.24;100.00;75457.41;5048927;28;53215;-73
2024/02/09 07:50:51;;;;;;;;;4.00;2.00;;;;;-144.24;100.00;75509.88;5044311;28;55003;-70
2024/02/09 07:53:16;;;;;;;;;3.00;3.00;;;;;-144.24;100.00;74955.00;5046893;28;45634;-71
2024/02/09 07:55:42;;;;;;;;;2.00;2.00;;;;;-144.24;100.00;74898.53;5052825;28;46118;-69
2024/02/09 07:58:07;;;;;;;;;7.00;2.00;;;;;-144.24;100.00;74638.25;5051220;28;60156;-73
2024/02/09 08:00:33;;;;;;;;;1.00;1.00;;;;;-144.24;100.00;74601.94;5036378;28;45573;-70
2024/02/09 08:02:58;;;;;;;;;1.00;1.00;;;;;-144.24;100.00;74571.69;5033162;28;45655;-70
2024/02/09 08:05:24;;;;;;;;;1.33;1.33;;;;;-144.24;100.00;74664.50;5050193;28;46370;-70
2024/02/09 08:07:51;;;;;;;;;2.33;1.00;;;;;-144.24;100.00;74557.56;5048368;28;45449;-69
2024/02/09 08:10:17;;;;;;;;;0.00;0.00;;;;;-144.24;100.00;74367.94;5029906;28;45562;-70
2024/02/09 08:12:43;;;;;;;;;7.00;2.00;;;;;-144.24;100.00;74450.66;5047962;28;45194;-69
2024/02/09 08:15:12;;;;;;;;;6.00;3.00;;;;;-144.24;100.00;74353.81;5031793;28;48376;-69
2024/02/09 08:17:59;;;;;;;;;1.00;1.00;;;;;-144.24;100.00;74111.75;5051688;28;45560;-69
2024/02/09 08:20:24;;;;;;;;;2.00;2.00;;;;;-144.24;100.00;74025.03;5033150;28;45304;-70
2024/02/09 08:22:49;;;;;;;;;4.00;2.00;;;;;-144.24;100.00;73827.34;5048380;28;51648;-71
2024/02/09 08:25:16;;;;;;;;;2.00;2.00;;;;;-144.24;100.00;73910.03;5052000;28;47569;-69
2024/02/09 08:27:41;;;;;;;;;2.00;2.00;;;;;-144.24;100.00;73883.81;5045010;28;45772;-71
2024/02/09 08:30:08;;;;;;;;;8.33;2.00;;;;;-144.24;100.00;73778.94;5044125;28;45564;-69
2024/02/09 08:32:34;;;;;;;;;2.00;2.00;;;;;-144.24;100.00;73561.13;5025815;28;45635;-70
2024/02/09 08:34:59;;;;;;;;;3.00;2.00;;;;;-144.24;100.00;73403.81;5049184;28;46678;-69
2024/02/09 08:37:25;;;;;;;;;6.00;2.00;;;;;-144.24;100.00;73371.53;5054553;28;45471;-68
2024/02/09 08:39:50;;;;;;;;;3.00;2.00;;;;;-144.24;100.00;73413.88;5047405;28;45409;-70
2024/02/09 08:42:16;;;;;;;;;2.67;2.00;;;;;-144.24;100.00;73107.34;5050609;28;45925;-71
2024/02/09 08:44:42;;;;;;;;;1.00;1.00;;;;;-144.24;100.00;73238.44;5029150;28;46571;-70
2024/02/09 08:47:09;;;;;;;;;1.00;1.00;;;;;-144.24;100.00;73175.91;5033172;28;45829;-70
2024/02/09 08:49:35;;;;;;;;;5.00;2.00;;;;;-144.24;100.00;72976.25;5049740;28;45403;-70
2024/02/09 08:52:00;;;;;;;;;3.33;2.00;;;;;-144.24;100.00;73177.94;5036977;28;45449;-69
2024/02/09 08:54:26;;;;;;;;;2.00;2.00;;;;;-144.24;100.00;72984.31;5037448;28;45741;-70
2024/02/09 08:56:51;;;;;;;;;4.00;3.67;;;;;-144.24;100.00;73081.13;5048336;28;59317;-69
2024/02/09 08:59:17;;;;;;;;;1.00;1.00;;;;;-144.24;100.00;72881.47;5053313;28;60973;-70
2024/02/09 09:01:43;;;;;;;;;2.00;1.00;;;;;-144.24;100.00;73052.88;5036637;28;45499;-70
2024/02/09 09:04:08;;;;;;;;;3.00;1.00;;;;;-144.24;100.00;72946.00;5052577;28;60765;-70
2024/02/09 09:06:33;;;;;;;;;1.00;1.00;;;;;-144.24;100.00;73411.88;5049908;28;66232;-69
2024/02/09 09:09:00;;;;;;;;;7.00;1.00;;;;;-144.24;100.00;73740.63;5045772;28;47065;-71
2024/02/09 09:11:25;;;;;;;;;3.33;2.00;;;;;-144.24;100.00;73607.50;5028864;28;45412;-70
2024/02/09 09:13:50;;;;;;;;;1.67;1.00;;;;;-144.24;100.00;73528.84;5052363;28;45809;-69
2024/02/09 09:16:16;;;;;;;;;3.00;0.67;;;;;-144.24;100.00;73986.69;5044270;28;54718;-70
2024/02/09 09:18:45;;;;;;;;;1.67;1.33;;;;;-144.24;100.00;74192.44;5046132;28;57557;-69
2024/02/09 09:21:11;;;;;;;;;2.00;1.00;;;;;-144.24;100.00;74505.13;5045576;28;45466;-69
2024/02/09 09:23:39;;;;;;;;;2.33;1.00;;;;;-144.24;100.00;74642.31;5049588;28;46011;-70
2024/02/09 09:26:05;;;;;;;;;1.00;1.00;;;;;-144.24;100.00;74799.66;5046274;28;45545;-70
2024/02/09 09:28:30;;;;;;;;;1.00;1.00;;;;;-144.24;100.00;75094.22;5049110;28;45964;-71
2024/02/09 09:30:56;;;;;;;;;4.00;1.00;;;;;-144.24;100.00;75197.13;5029904;28;45606;-69
2024/02/09 09:33:21;;;;;;;;;1.00;1.00;;;;;-144.24;100.00;75241.50;5035788;28;53312;-69
2024/02/09 09:35:47;;;;;;;;;3.00;1.33;;;;;-144.24;100.00;75705.63;5043455;28;46076;-70
2024/02/09 09:38:12;;;;;;;;;2.00;2.00;;;;;-144.24;100.00;76060.78;5052551;28;47596;-70
2024/02/09 09:40:39;;;;;;;;;3.00;1.00;;;;;-144.24;100.00;76125.38;5050028;28;45404;-69
2024/02/09 09:43:05;;;;;;;;;5.67;2.00;;;;;-144.24;100.00;76331.22;5048246;28;46823;-71
2024/02/09 09:45:34;;;;;;;;;2.33;1.00;;;;;-144.24;100.00;76664.25;5046768;28;45485;-69
2024/02/09 09:48:00;;;;;;;;;0.67;0.67;;;;;-144.24;100.00;76718.75;5051174;28;45453;-70
2024/02/09 09:50:26;;;;;;;;;5.00;1.67;;;;;-144.24;100.00;77158.81;5031565;28;45624;-70
2024/02/09 09:52:55;;;;;;;;;5.67;1.00;;;;;-144.24;100.00;77409.13;5050602;28;46202;-70
2024/02/09 09:55:24;;;;;;;;;2.00;2.00;;;;;-144.24;100.00;77512.09;5032178;28;51312;-72
2024/02/09 09:57:50;;;;;;;;;2.33;1.00;;;;;-144.24;100.00;77518.16;5046407;28;45514;-71
2024/02/09 10:00:17;;;;;;;;;2.67;1.00;;;;;-144.24;100.00;77950.22;5047409;28;45517;-69
2024/02/09 10:02:43;;;;;;;;;3.33;1.00;;;;;-144.24;100.00;78238.94;5034746;28;46752;-72
2024/02/09 10:05:09;;;;;;;;;1.33;1.33;;;;;-144.24;100.00;78828.59;5044953;28;52848;-69
2024/02/09 10:07:40;;;;;;;;;4.00;1.00;;;;;-144.24;100.00;79202.25;5048668;28;45545;-72
2024/02/09 10:10:11;;;;;;;;;2.67;1.00;;;;;-144.24;100.00;79838.50;5037054;28;45514;-70
2024/02/09 10:12:37;;;;;;;;;2.33;1.00;;;;;-144.24;100.00;79931.41;5049879;28;46162;-71
2024/02/09 10:15:04;;;;;;;;;4.00;1.00;;;;;-144.24;100.00;80509.22;5028294;28;45424;-69
2024/02/09 10:17:29;;;;;;;;;5.67;2.00;;;;;-144.24;100.00;81044.63;5050713;28;45489;-71
2024/02/09 10:19:59;;;;;;;;;1.67;0.67;;;;;-144.24;100.00;81422.50;5044486;28;45588;-72
2024/02/09 10:22:25;;;;;;;;;3.00;1.67;;;;;-144.24;100.00;81768.09;5035735;28;46693;-71
2024/02/09 10:24:51;;;;;;;;;7.00;2.00;;;;;-144.24;100.00;82269.34;5042542;28;45567;-71
2024/02/09 10:27:17;;;;;;;;;4.33;2.33;;;;;-144.24;100.00;81677.16;5051489;28;45732;-71
2024/02/09 10:29:43;;;;;;;;;3.33;0.33;;;;;-144.24;100.00;82214.75;5044330;28;45583;-70
2024/02/09 10:32:08;;;;;;;;;3.67;2.00;;;;;-144.24;100.00;82600.84;5016790;28;48854;-70
2024/02/09 10:34:35;;;;;;;;;8.33;1.00;;;;;-144.24;100.00;82796.91;5034551;28;45599;-70
2024/02/09 10:37:03;;;;;;;;;5.33;2.00;;;;;-144.24;100.00;83251.78;5048548;28;45470;-70
2024/02/09 10:39:29;;;;;;;;;4.33;2.33;;;;;-144.24;100.00;83494.41;5031045;28;45602;-70
2024/02/09 10:42:03;;;;;;;;;1.00;1.00;;;;;-144.24;100.00;83809.81;5051349;28;47680;-70
2024/02/09 10:44:32;;;;;;;;;2.00;2.00;;;;;-144.24;100.00;84392.22;5034444;28;46099;-70
2024/02/09 10:46:59;;;;;;;;;4.00;2.00;;;;;-144.24;100.00;84691.53;5044091;28;45799;-70
2024/02/09 10:49:28;;;;;;;;;1.33;1.33;;;;;-144.24;100.00;85448.00;5033863;28;45535;-69
2024/02/09 10:51:58;;;;;;;;;4.00;1.00;;;;;-144.24;100.00;85826.28;5047686;28;45827;-71
2024/02/09 10:54:30;;;;;;;;;3.67;1.00;;;;;-144.24;100.00;86354.34;5036597;28;45529;-71
2024/02/09 10:56:57;;;;;;;;;2.33;2.00;;;;;-144.24;100.00;86324.00;5013893;28;45471;-72
2024/02/09 10:59:23;;;;;;;;;5.67;3.00;;;;;-144.24;100.00;86348.28;5053257;28;45510;-70
2024/02/09 11:01:49;;;;;;;;;6.67;3.00;;;;;-144.24;100.00;86615.38;5046036;28;46601;-71
2024/02/09 11:04:15;;;;;;;;;8.33;2.00;;;;;-144.24;100.00;86860.22;5032376;28;45625;-69
2024/02/09 11:06:41;;;;;;;;;2.33;2.00;;;;;-144.24;100.00;86890.56;5054601;28;45502;-70
2024/02/09 11:09:09;;;;;;;;;4.67;1.00;;;;;-144.24;100.00;87600.91;5028556;28;45532;-69
2024/02/09 11:11:35;;;;;;;;;1.00;1.00;;;;;-144.24;100.00;87884.25;5034488;28;46002;-69
2024/02/09 11:14:09;;;;;;;;;4.33;2.33;;;;;-144.24;100.00;88137.28;5037178;28;45581;-68
2024/02/09 11:16:48;;;;;;;;;6.00;2.00;;;;;-144.24;100.00;88469.25;5049623;28;45859;-71
2024/02/09 11:19:18;;;;;;;;;4.33;3.00;;;;;-144.24;100.00;88546.19;5037030;28;45525;-72
2024/02/09 11:22:10;;;;;;;;;6.00;2.00;;;;;-144.24;100.00;89364.13;5050897;28;46865;-71
2024/02/09 11:24:36;;;;;;;;;2.67;2.67;;;;;-144.24;100.00;89094.84;5047601;28;45497;-74
2024/02/09 11:27:02;;;;;;;;;3.00;3.00;;;;;-144.24;100.00;89224.44;5036495;28;45593;-71
2024/02/09 11:29:29;;;;;;;;;7.67;2.33;;;;;-144.24;100.00;89343.88;5034072;28;45630;-71
2024/02/09 11:31:56;;;;;;;;;4.67;2.00;;;;;-144.24;100.00;90097.19;5034817;28;45849;-73
2024/02/09 11:34:24;;;;;;;;;1.33;1.33;;;;;-144.24;100.00;90267.31;5027665;28;45466;-74
2024/02/09 11:36:52;;;;;;;;;4.67;3.00;;;;;-144.24;100.00;91306.41;5038661;28;45494;-75
2024/02/09 11:39:21;;;;;;;;;3.00;2.00;;;;;-144.24;100.00;92070.22;5050537;28;45471;-72
2024/02/09 11:41:47;;;;;;;;;3.00;2.00;;;;;-144.24;100.00;92789.56;5031029;28;48333;-76
2024/02/09 11:44:12;;;;;;;;;3.67;2.00;;;;;-144.24;100.00;93965.13;5052063;28;45472;-71
2024/02/09 11:46:39;;;;;;;;;4.00;2.00;;;;;-144.24;100.00;94968.69;5051398;28;45513;-70
2024/02/09 11:49:06;;;;;;;;;4.33;1.00;;;;;-144.24;100.00;95605.41;5029052;28;58113;-71
2024/02/09 11:51:34;;;;;;;;;4.00;1.33;;;;;-144.24;100.00;96327.44;5046043;28;46241;-71
2024/02/09 11:54:03;;;;;;;;;3.67;2.67;;;;;-144.24;100.00;97343.75;5034404;28;45579;-71
2024/02/09 11:56:29;;;;;;;;;1.00;1.00;;;;;-144.24;100.00;98045.78;5048881;28;45360;-72
2024/02/09 11:58:56;;;;;;;;;3.00;1.33;;;;;-144.24;100.00;99086.88;5047713;28;45554;-71
2024/02/09 12:01:23;;;;;;;;;2.33;2.00;;;;;-144.24;100.00;99521.25;5053186;28;45869;-71
2024/02/09 12:03:49;;;;;;;;;4.33;2.00;;;;;-144.24;100.00;99951.63;5052000;28;45586;-74
2024/02/09 12:06:14;;;;;;;;;2.00;1.00;;;;;-144.24;100.00;100554.63;5054767;28;45467;-72
2024/02/09 12:08:40;;;;;;;;;3.33;2.00;;;;;-144.24;100.00;101088.66;5037879;28;45431;-72
2024/02/09 12:11:05;;;;;;;;;4.33;2.00;;;;;-144.24;100.00;102128.50;5051300;28;46451;-72
2024/02/09 12:13:30;;;;;;;;;5.00;2.00;;;;;-144.24;100.00;102930.94;5053425;28;45389;-71
2024/02/09 12:15:59;;;;;;;;;8.00;3.00;;;;;-144.24;100.00;103219.44;5050734;28;55744;-71
2024/02/09 12:18:27;;;;;;;;;4.00;2.67;;;;;-144.24;100.00;103678.63;5054006;28;45576;-72
2024/02/09 12:20:54;;;;;;;;;4.33;3.00;;;;;-144.24;100.00;103871.69;5047412;28;46616;-71
2024/02/09 12:23:22;;;;;;;;;3.67;3.67;;;;;-144.24;100.00;104001.72;5030487;28;45494;-71
2024/02/09 12:25:48;;;;;;;;;5.00;1.67;;;;;-144.24;100.00;103961.09;5051870;28;45669;-72
2024/02/09 12:28:23;;;;;;;;;3.00;3.00;;;;;-144.24;100.00;104292.34;5049350;28;45470;-72
2024/02/09 12:30:51;;;;;;;;;3.67;2.67;;;;;-144.24;100.00;104133.81;5047612;28;46973;-72
2024/02/09 12:33:18;;;;;;;;;7.33;3.00;;;;;-144.24;100.00;104361.44;5045300;28;45443;-72
2024/02/09 12:35:43;;;;;;;;;6.33;2.67;;;;;-144.24;100.00;104320.78;5044845;28;45396;-73
2024/02/09 12:38:10;;;;;;;;;5.00;3.33;;;;;-144.24;100.00;104383.78;5051729;28;45502;-73
2024/02/09 12:40:35;;;;;;;;;3.00;3.00;;;;;-144.24;100.00;104444.78;5051351;28;46824;-72
2024/02/09 12:43:01;;;;;;;;;7.67;4.00;;;;;-144.24;100.00;104711.03;5045774;28;50993;-71
2024/02/09 12:45:28;;;;;;;;;8.00;4.00;;;;;-144.24;100.00;104786.22;5045718;28;45352;-72
2024/02/09 12:47:54;;;;;;;;;5.00;3.00;;;;;-144.24;100.00;105019.97;5051541;28;46373;-72
2024/02/09 12:50:20;;;;;;;;;8.00;2.00;;;;;-144.24;100.00;105465.16;5047672;28;45827;-70
2024/02/09 12:52:49;;;;;;;;;2.67;2.00;;;;;-144.24;100.00;106044.56;5034832;28;45431;-71
2024/02/09 12:55:17;;;;;;;;;5.67;3.00;;;;;-144.24;100.00;106632.19;5051544;28;45573;-72